KIND/IND METAR and TAF weather

Enter ICAO airport designator
Station Type Date Time Source
KIND METAR 2020/09/22 22:54 UTC NOAA

KIND 222254Z 23005KT 10SM SCT200 BKN250 22/11 A3013 RMK AO2 SLP201 FU SCT200 T02220111


Station Type Date Time Source
KIND Decoded METAR 2020/09/22 22:54 UTC NOAA

INDIANAPOLIS INTERNATIONAL AIRPORT , IN, United States (KIND) 39-43N 86-17W 242M
Sep 22, 2020 - 06:54 PM EDT / 2020.09.22 2254 UTC
Wind: from the SW (230 degrees) at 6 MPH (5 KT):0
Visibility: 10 mile(s):0
Sky conditions: mostly cloudy
Temperature: 72.0 F (22.2 C)
Dew Point: 52.0 F (11.1 C)
Relative Humidity: 49%
Pressure (altimeter): 30.13 in. Hg (1020 hPa)
ob: KIND 222254Z 23005KT 10SM SCT200 BKN250 22/11 A3013 RMK AO2 SLP201 FU SCT200 T02220111
cycle: 23

Station Type Date Time Source
KIND TAF 2020/09/22 20:15 UTC NOAA

TAF
AMD KIND 222012Z 2220/2324 VRB03KT P6SM FEW050 SCT250
FM222200 25005KT P6SM SCT250
FM231500 24006KT P6SM SCT045 BKN240

Example: see airport list